Have a Safe July 4th! 

Flight Track Log - Related Links

Times and Time Zones

All times are in EDT time to prevent confusion due to time zone crossing. See the CJT620 flight status page for this flight to view local times or setup timezone preferences in your user account.

Time Position Orientation Groundspeed Altitude Reporting Facility
EDT Latitude Longitude Course Direction KTS MPH feet Rate Location/Type
Fri 12:48:48 AM 43.1833 -79.8667 31° Northeast 150 173 3,100  Level Toronto Center
Fri 12:49:48 AM 43.2167 -79.8167 48° Northeast 200 230 4,500 2,250 Climbing Toronto Center
Fri 12:50:48 AM 43.2667 -79.7167 56° Northeast 260 299 7,600 2,700 Climbing Toronto Center
Fri 12:51:48 AM 43.3167 -79.6167 55° Northeast 300 345 9,900 1,900 Climbing Toronto Center
Fri 12:52:48 AM 43.3667 -79.5000 59° Northeast 350 403 11,400 1,650 Climbing Toronto Center
Fri 12:53:00 AM 43.4664 -78.9836 31° Northeast  Level FlightAware Approximate
Fri 12:53:48 AM 43.4167 -79.3833 59° Northeast 410 472 13,200  Level Toronto Center
Fri 12:54:48 AM 43.5000 -79.2167 55° Northeast 440 506 15,800 2,350 Climbing Toronto Center
Fri 12:55:48 AM 43.5667 -79.0500 61° Northeast 460 529 17,900 2,250 Climbing Toronto Center
Fri 12:56:48 AM 43.6333 -78.9167 55° Northeast 480 552 20,300 2,550 Climbing Toronto Center
Fri 12:57:48 AM 43.7000 -78.7500 61° Northeast 470 541 23,000 1,650 Climbing Toronto Center
Fri 12:58:48 AM 43.7500 -78.5667 69° East 490 564 23,600 1,000 Climbing Toronto Center
Fri 12:59:48 AM 43.7833 -78.3833 76° East 520 598 25,000 1,400 Climbing Toronto Center
Fri 01:00:48 AM 43.8333 -78.2000 69° East 530 610 26,400 1,550 Climbing Toronto Center
Fri 01:01:48 AM 43.9000 -78.0167 63° Northeast 540 621 28,100 1,550 Climbing Toronto Center
Fri 01:02:48 AM 43.9500 -77.8333 69° East 540 621 29,500 1,600 Climbing Toronto Center
Fri 01:03:48 AM 44.0167 -77.6167 67° East 550 633 31,300 1,650 Climbing Toronto Center
Fri 01:04:48 AM 44.0667 -77.4333 69° East 550 633 32,800 1,500 Climbing Toronto Center
Fri 01:05:48 AM 44.1000 -77.2000 79° East 550 633 34,300 1,400 Climbing Toronto Center
Fri 01:06:48 AM 44.1500 -77.0000 71° East 550 633 35,600 1,295 Climbing Toronto Center
Fri 01:07:16 AM 44.1667 -76.9500 65° Northeast 550 633 36,200 1,000 Climbing Montreal Center
Fri 01:07:48 AM 44.2000 -76.8167 71° East 550 633 36,600 522 Climbing Toronto Center
Fri 01:08:48 AM 44.2333 -76.6000 78° East 550 633 37,000 273 Climbing Toronto Center
Fri 01:09:16 AM 44.2500 -76.5333 71° East 550 633 37,000  Level Montreal Center
Fri 01:10:16 AM 44.3000 -76.3167 72° East 550 633 37,000  Level Montreal Center
Fri 01:11:16 AM 44.3500 -76.1333 69° East 550 633 37,000  Level Montreal Center
Fri 01:12:16 AM 44.3833 -75.9167 78° East 550 633 37,000  Level Montreal Center
Fri 01:13:16 AM 44.4333 -75.7167 71° East 550 633 37,000  Level Montreal Center
Fri 01:14:10 AM 44.4839 -75.5567 66° East 543 625 37,000  Level Boston Center
Fri 01:15:10 AM 44.5267 -75.3464 74° East 543 625 37,000  Level Boston Center
Fri 01:16:10 AM 44.5694 -75.1386 74° East 543 625 37,000  Level Boston Center
Fri 01:17:10 AM 44.6114 -74.9364 74° East 543 625 37,000  Level Boston Center
Fri 01:18:10 AM 44.6531 -74.7308 74° East 543 625 37,000  Level Boston Center
Fri 01:19:11 AM 44.6950 -74.5047 75° East 540 621 37,000  Level Boston Center
Fri 01:20:11 AM 44.7361 -74.2956 74° East 535 616 37,000  Level Boston Center
Fri 01:21:11 AM 44.7789 -74.0836 74° East 546 628 37,000  Level Boston Center
Fri 01:22:11 AM 44.8169 -73.8739 76° East 555 639 37,000  Level Boston Center
Fri 01:23:10 AM 44.8503 -73.7050 74° East 550 633 37,000  Level Boston Center
Fri 01:24:10 AM 44.8942 -73.4744 75° East 550 633 37,000  Level Boston Center
Fri 01:25:10 AM 44.9375 -73.2642 74° East 550 633 37,000  Level Boston Center
Fri 01:26:12 AM 44.9742 -73.0475 76° East 550 633 37,000  Level Boston Center
Fri 01:27:12 AM 45.0128 -72.8336 76° East 550 633 37,000  Level Boston Center
Fri 01:28:10 AM 45.0508 -72.6222 76° East 550 633 37,000  Level Boston Center
Fri 01:29:10 AM 45.0883 -72.4108 76° East 550 633 37,000  Level Boston Center
Fri 01:30:10 AM 45.1278 -72.1958 75° East 550 633 37,000  Level Boston Center
Fri 01:31:10 AM 45.1644 -71.9839 76° East 550 633 37,000  Level Boston Center
Fri 01:32:12 AM 45.2011 -71.7714 76° East 550 633 37,000  Level Boston Center
Fri 01:33:10 AM 45.2369 -71.5558 77° East 550 633 37,000  Level Boston Center
Fri 01:34:10 AM 45.2747 -71.3222 77° East 550 633 37,000  Level Boston Center
Fri 01:35:10 AM 45.3119 -71.1092 76° East 550 633 37,000  Level Boston Center
Fri 01:36:10 AM 45.3447 -70.8928 78° East 550 633 37,000  Level Boston Center
Fri 01:37:10 AM 45.3811 -70.6761 76° East 550 633 37,000  Level Boston Center
Fri 01:38:10 AM 45.4153 -70.4622 77° East 550 633 37,000  Level Boston Center
Fri 01:39:10 AM 45.4489 -70.2481 77° East 550 633 37,000  Level Boston Center
Fri 01:40:12 AM 45.4842 -70.0275 77° East 550 633 37,000  Level Boston Center
Fri 01:41:10 AM 45.5131 -69.8308 78° East 550 633 37,000  Level Boston Center
Fri 01:42:10 AM 45.5475 -69.6128 77° East 555 639 37,000  Level Boston Center
Fri 01:43:10 AM 45.5794 -69.3947 78° East 555 639 37,000  Level Boston Center
Fri 01:44:10 AM 45.6111 -69.1767 78° East 560 644 37,000  Level Boston Center
Fri 01:45:10 AM 45.6442 -68.9519 78° East 565 650 37,000  Level Boston Center
Fri 01:46:10 AM 45.6769 -68.7300 78° East 565 650 37,000  Level Boston Center
Fri 01:47:10 AM 45.7092 -68.5081 78° East 565 650 37,000  Level Boston Center
Fri 01:48:11 AM 45.7369 -68.2831 80° East 565 650 37,000  Level Boston Center
Fri 01:49:10 AM 45.7664 -68.0636 79° East 570 656 37,000  Level Boston Center
Fri 01:50:10 AM 45.7969 -67.8347 79° East 570 656 37,000  Level Boston Center
Fri 01:51:10 AM 45.8275 -67.6089 79° East 565 650 37,000  Level Boston Center
Fri 01:52:10 AM 45.8558 -67.3917 79° East 565 650 37,000  Level Boston Center
Fri 01:53:12 AM 45.8833 -67.1333 81° East 570 656 37,000 -787 Level Moncton Center
Fri 01:54:12 AM 45.9167 -66.9167 77° East 570 656 35,400 -2,250 Descending Moncton Center
Fri 01:55:12 AM 45.9333 -66.6833 84° East 570 656 32,500 -3,950 Descending Moncton Center
Fri 01:56:12 AM 45.9500 -66.4667 84° East 570 656 27,500 -5,600 Descending Moncton Center
Fri 01:57:12 AM 45.9833 -66.2333 78° East 570 656 21,300 -5,250 Descending Moncton Center
Fri 01:58:12 AM 46.0000 -66.0167 84° East 540 621 17,000 -4,050 Descending Moncton Center
Fri 01:59:12 AM 46.0167 -65.8167 83° East 500 575 13,200 -3,050 Descending Moncton Center
Fri 02:00:12 AM 46.0167 -65.6667 90° East 420 483 10,900 -1,650 Descending Moncton Center
Fri 02:01:12 AM 46.0333 -65.5333 80° East 330 380 9,900 -1,300 Descending Moncton Center
Fri 02:02:12 AM 46.0333 -65.4333 90° East 280 322 8,300 -1,400 Descending Moncton Center
Fri 02:03:12 AM 46.0500 -65.3167 78° East 270 311 7,100 -1,250 Descending Moncton Center
Fri 02:04:12 AM 46.0500 -65.2167 90° East 260 299 5,800 -1,150 Descending Moncton Center
Fri 02:05:12 AM 46.0667 -65.1167 76° East 250 288 4,800 -1,150 Descending Moncton Center
Fri 02:06:12 AM 46.0667 -65.0167 90° East 240 276 3,500 -1,050 Descending Moncton Center
Fri 02:07:12 AM 46.1000 -64.9333 60° Northeast 220 253 2,700 -600 Descending Moncton Center
Fri 02:08:12 AM 46.1000 -64.8500 90° East 190 219 2,300 -500 Descending Moncton Center
Fri 02:09:12 AM 46.1000 -64.7833 90° East 170 196 1,700 -600 Descending Moncton Center
Fri 02:10:12 AM 46.1000 -64.7333 90° East 150 173 1,100 -700 Descending Moncton Center
Fri 02:11:12 AM 46.1000 -64.6833 90° East 150 173 300 -400 Descending Moncton Center
Fri 02:12:12 AM 46.1000 -64.6167 90° East 150 173 300  Level Moncton Center

Login

Don't have an account? Register now (free) for customized features, flight alerts, and more!